In Rescue
 
Open Full Screen Window  High Contrast Mode
Wind Gusting 27 knots
07
July 13, 2020 10:36 PM CDT
Present Weather: Heavy Thunderstorms with Rain
Weather Information
Wind Direction
  220 °
Wind Speed
  07 kt (8 mph)
Wind Gust
  27 kt (31 mph)
Variable Wind
190°
250°
Altimeter
29.73 in
Visibility
2 SM
Temperature
21° C
70° F
Dewpoint
19° C
66° F
Humidity
88%
1hr Rain Fall
00.84 in.
24hr Rain Fall
00.88 in.
Sky Condition
Overcast @ 2,900 ft
Broken @ 1,200 ft
Broken @ 300 ft
LIFR

METAR KXVG 140336Z AUTO 22007G27KT 194V254 2SM +TSRA BKN003 BKN012 OVC029 21/19 A2973 RMK AO2 VIS 3/4V5 LTG DSNT NW THRU E P0084

FAA Disclaimer: The data displayed is for advisory purposes only and is not to be used for flight planning or operations.